Time;durP1;ratioP1;P1;durP2;ratioP2;P2;SDS_P1;SDS_P2;PMS_P1;PMS_P2;Temp;Humidity;BMP_temperature;BMP_pressure;BME280_temperature;BME280_humidity;BME280_pressure;Samples;Min_cycle;Max_cycle;Signal;HPM_P1;HPM_P2
2023/04/25 07:06:52;;;;;;;11.60;4.63;;;12.40;99.90;;;;;;5079502;23;20229;-88
2023/04/25 07:09:19;;;;;;;9.50;4.67;;;12.50;99.90;;;;;;5035621;28;20666;-88
2023/04/25 07:11:46;;;;;;;14.30;4.97;;;12.60;99.90;;;;;;5019724;28;20257;-89
2023/04/25 07:14:12;;;;;;;7.93;5.10;;;12.70;84.60;;;;;;5033763;28;20285;-88
2023/04/25 07:16:39;;;;;;;16.00;5.57;;;12.80;1.00;;;;;;5031898;28;20213;-88
2023/04/25 07:19:06;;;;;;;11.87;5.07;;;12.90;1.00;;;;;;5032776;28;20225;-88
2023/04/25 07:21:33;;;;;;;8.13;4.90;;;12.90;1.00;;;;;;5033862;28;20194;-89
2023/04/25 07:24:02;;;;;;;8.67;4.07;;;12.90;1.00;;;;;;5028886;28;20194;-90
2023/04/25 07:26:28;;;;;;;14.10;4.87;;;12.90;1.00;;;;;;5020407;28;20290;-91
2023/04/25 07:28:55;;;;;;;7.83;3.80;;;12.90;1.00;;;;;;5031845;28;20192;-89
2023/04/25 07:31:23;;;;;;;6.67;4.27;;;13.00;1.00;;;;;;5029947;28;20195;-89
2023/04/25 07:33:50;;;;;;;10.77;4.37;;;13.00;1.00;;;;;;5029961;28;20192;-89
2023/04/25 07:36:17;;;;;;;8.83;4.50;;;13.20;1.00;;;;;;5022746;28;20236;-89
2023/04/25 07:38:43;;;;;;;6.43;3.67;;;13.30;99.90;;;;;;5021850;28;20199;-89
2023/04/25 07:41:12;;;;;;;7.20;4.00;;;13.40;99.90;;;;;;5030769;28;20190;-89
2023/04/25 07:43:38;;;;;;;5.73;3.77;;;13.50;99.90;;;;;;5034173;28;20199;-88
2023/04/25 07:46:06;;;;;;;7.03;4.13;;;13.50;99.90;;;;;;5030549;28;20206;-88
2023/04/25 07:48:32;;;;;;;7.80;3.47;;;13.50;99.90;;;;;;5031495;28;20666;-88
2023/04/25 07:50:59;;;;;;;7.77;3.80;;;13.50;99.90;;;;;;5027240;28;20194;-87
2023/04/25 07:53:26;;;;;;;4.80;3.80;;;13.40;99.90;;;;;;5026867;28;20202;-88
2023/04/25 07:55:53;;;;;;;8.23;3.90;;;13.30;99.90;;;;;;5018063;28;20222;-88
2023/04/25 07:58:21;;;;;;;7.90;4.23;;;13.20;99.90;;;;;;5019132;28;20253;-89
2023/04/25 08:00:49;;;;;;;7.53;4.10;;;13.10;99.90;;;;;;5020990;28;20191;-89
2023/04/25 08:03:16;;;;;;;6.57;3.90;;;13.20;99.90;;;;;;5020759;28;20271;-90
2023/04/25 08:05:43;;;;;;;7.67;4.20;;;13.30;99.90;;;;;;5020523;28;20529;-88
2023/04/25 08:08:10;;;;;;;8.00;3.90;;;13.40;99.90;;;;;;5022930;28;20210;-88
2023/04/25 08:10:37;;;;;;;11.87;4.30;;;13.40;99.90;;;;;;5018302;28;20199;-88
2023/04/25 08:13:03;;;;;;;6.90;3.60;;;13.60;99.90;;;;;;5023152;28;20209;-88
2023/04/25 08:15:32;;;;;;;8.50;4.10;;;13.80;99.90;;;;;;5030314;28;20197;-89
2023/04/25 08:17:59;;;;;;;6.23;3.60;;;14.00;1.00;;;;;;5034276;28;20451;-90
2023/04/25 08:20:26;;;;;;;6.83;3.77;;;14.10;1.00;;;;;;5019314;28;20196;-88
2023/04/25 08:22:52;;;;;;;9.93;3.70;;;14.20;1.00;;;;;;5022460;28;20292;-89
2023/04/25 08:25:19;;;;;;;5.53;2.60;;;14.30;1.00;;;;;;5023202;28;20663;-89
2023/04/25 08:27:46;;;;;;;39.47;16.37;;;14.10;1.00;;;;;;5026376;28;20197;-88
2023/04/25 08:30:14;;;;;;;25.70;14.53;;;14.00;1.00;;;;;;5034195;28;20475;-89
2023/04/25 08:32:42;;;;;;;10.67;6.73;;;14.10;1.00;;;;;;5018242;28;20207;-89
2023/04/25 08:35:09;;;;;;;15.87;9.87;;;14.10;1.00;;;;;;5020028;28;20200;-89
2023/04/25 08:37:37;;;;;;;11.60;6.77;;;14.20;1.00;;;;;;5022752;28;20213;-88
2023/04/25 08:40:06;;;;;;;9.03;5.77;;;14.40;1.00;;;;;;5031951;28;20202;-89
2023/04/25 08:42:35;;;;;;;9.07;6.20;;;14.50;1.00;;;;;;5033079;28;20231;-89
2023/04/25 08:45:02;;;;;;;12.00;6.87;;;14.60;1.00;;;;;;5033380;28;20262;-88
2023/04/25 08:47:31;;;;;;;10.27;4.87;;;14.60;1.00;;;;;;5018427;28;20194;-88
2023/04/25 08:50:02;;;;;;;10.87;5.80;;;14.80;99.90;;;;;;5021401;28;20199;-89
2023/04/25 08:52:36;;;;;;;9.38;5.60;;;14.80;99.90;;;;;;5026906;28;20215;-89
2023/04/25 08:55:04;;;;;;;13.83;8.13;;;14.70;99.90;;;;;;5027821;28;20584;-89
2023/04/25 08:57:32;;;;;;;12.50;7.70;;;14.60;99.90;;;;;;5019157;28;20632;-89
2023/04/25 09:00:00;;;;;;;9.67;6.23;;;14.60;99.90;;;;;;5029380;28;20197;-89
2023/04/25 09:02:27;;;;;;;9.77;6.27;;;14.70;99.90;;;;;;5015235;28;20198;-89
2023/04/25 09:04:55;;;;;;;8.23;5.40;;;14.70;99.90;;;;;;5016687;28;20206;-89
2023/04/25 09:07:25;;;;;;;4.77;2.57;;;14.70;99.90;;;;;;5021204;28;20232;-89
2023/04/25 09:09:52;;;;;;;9.55;6.30;;;14.90;99.90;;;;;;5024688;28;20208;-88
2023/04/25 09:12:19;;;;;;;10.83;7.63;;;14.90;99.90;;;;;;5027842;28;20196;-89
2023/04/25 09:15:03;;;;;;;6.33;4.10;;;14.50;99.90;;;;;;5014782;28;20292;-88
2023/04/25 09:17:30;;;;;;;9.03;4.70;;;14.00;99.90;;;;;;5030934;28;20279;-88
2023/04/25 09:20:07;;;;;;;7.47;4.87;;;13.60;99.90;;;;;;5020754;28;20607;-89
2023/04/25 09:22:35;;;;;;;5.37;3.43;;;13.20;99.90;;;;;;5030531;28;20196;-88
2023/04/25 09:25:04;;;;;;;6.13;4.40;;;13.00;1.00;;;;;;5027997;28;20217;-88
2023/04/25 09:27:31;;;;;;;6.23;3.30;;;13.00;1.00;;;;;;5022029;28;20605;-88
2023/04/25 09:30:00;;;;;;;6.97;5.07;;;13.20;1.00;;;;;;5018340;28;20672;-88
2023/04/25 09:32:27;;;;;;;4.23;3.50;;;13.40;1.00;;;;;;5024293;28;20200;-89
2023/04/25 09:34:55;;;;;;;8.87;3.13;;;13.70;1.00;;;;;;5028364;28;20206;-88
2023/04/25 09:37:23;;;;;;;6.57;2.80;;;14.20;1.00;;;;;;5025249;28;20223;-89
2023/04/25 09:39:53;;;;;;;5.43;3.33;;;14.40;1.00;;;;;;5021911;28;20571;-89
2023/04/25 09:42:23;;;;;;;3.57;2.30;;;14.60;1.00;;;;;;5027420;28;20205;-89
2023/04/25 09:44:53;;;;;;;5.73;3.60;;;14.90;99.90;;;;;;5033024;28;20193;-88
2023/04/25 09:47:21;;;;;;;5.70;3.20;;;15.10;99.90;;;;;;5029770;28;20192;-88
2023/04/25 09:49:48;;;;;;;4.60;2.73;;;15.10;99.90;;;;;;5021069;28;20278;-88
2023/04/25 09:52:18;;;;;;;6.75;3.20;;;15.10;99.90;;;;;;5021740;28;20209;-88
2023/04/25 09:54:45;;;;;;;3.63;2.17;;;15.20;99.90;;;;;;5027061;28;20570;-88
2023/04/25 09:57:16;;;;;;;8.13;3.20;;;15.30;99.90;;;;;;5029547;28;20219;-89
2023/04/25 09:59:47;;;;;;;9.80;6.03;;;15.40;99.90;;;;;;5027403;28;20213;-88
2023/04/25 10:02:15;;;;;;;7.82;3.40;;;15.60;99.90;;;;;;5017444;28;20195;-88
2023/04/25 10:04:43;;;;;;;10.50;5.00;;;15.80;99.90;;;;;;5021353;28;20205;-88
2023/04/25 10:07:10;;;;;;;10.25;4.97;;;16.10;99.90;;;;;;5021692;28;20208;-89
2023/04/25 10:09:40;;;;;;;5.82;2.83;;;16.20;99.90;;;;;;5021005;28;20217;-89
2023/04/25 10:12:07;;;;;;;9.45;5.97;;;16.20;99.90;;;;;;5032392;28;20744;-89
2023/04/25 10:14:36;;;;;;;11.27;5.38;;;16.10;99.90;;;;;;5027864;28;20659;-89
2023/04/25 10:17:03;;;;;;;6.13;3.38;;;15.80;99.90;;;;;;5026766;28;20261;-88
2023/04/25 10:19:30;;;;;;;5.43;3.67;;;15.50;99.90;;;;;;5028104;28;20201;-88
2023/04/25 10:22:05;;;;;;;6.60;4.00;;;15.40;99.90;;;;;;5027285;28;20228;-89
2023/04/25 10:24:32;;;;;;;4.25;2.78;;;15.60;99.90;;;;;;5027674;28;20207;-88
2023/04/25 10:27:01;;;;;;;5.03;3.05;;;15.90;99.90;;;;;;5026819;28;20191;-88
2023/04/25 10:29:28;;;;;;;5.78;3.05;;;16.00;99.90;;;;;;5016247;28;20193;-90
2023/04/25 10:31:57;;;;;;;11.05;6.22;;;15.80;99.90;;;;;;5031274;28;20198;-89
2023/04/25 10:34:39;;;;;;;9.80;6.78;;;15.40;99.90;;;;;;5027972;28;20205;-88
2023/04/25 10:37:09;;;;;;;28.60;23.77;;;14.80;99.90;;;;;;5026038;28;20215;-88
2023/04/25 10:39:35;;;;;;;20.93;17.67;;;14.30;99.90;;;;;;5021076;28;20205;-88
2023/04/25 10:42:03;;;;;;;7.57;6.77;;;13.90;1.00;;;;;;5018777;28;20207;-88
2023/04/25 10:44:31;;;;;;;5.97;4.87;;;13.80;1.00;;;;;;5016299;28;20196;-88
2023/04/25 10:47:01;;;;;;;7.47;4.40;;;13.80;99.90;;;;;;5019802;28;20198;-88
2023/04/25 10:49:34;;;;;;;26.03;15.37;;;14.00;99.90;;;;;;5027410;28;20293;-88
2023/04/25 10:52:15;;;;;;;26.17;14.43;;;14.10;99.90;;;;;;5025863;28;20201;-87
2023/04/25 10:54:44;;;;;;;5.47;3.63;;;14.20;99.90;;;;;;5029634;28;20204;-88
2023/04/25 10:57:27;;;;;;;26.97;15.27;;;14.30;99.90;;;;;;5034663;28;20220;-88
